createdAt,value
2024-05-09T00:00:12.737Z,24.07
2024-05-09T00:01:09.284Z,24.06
2024-05-09T00:02:08.313Z,24.06
2024-05-09T00:03:09.882Z,24.06
2024-05-09T00:04:08.492Z,24.06
2024-05-09T00:05:08.526Z,24.05
2024-05-09T00:06:08.528Z,24.07
2024-05-09T00:07:08.532Z,24.06
2024-05-09T00:08:08.558Z,24.06
2024-05-09T00:09:08.580Z,24.06
2024-05-09T00:10:14.664Z,24.06
2024-05-09T00:11:09.767Z,24.05
2024-05-09T00:12:08.855Z,24.05
2024-05-09T00:13:09.105Z,24.05
2024-05-09T00:14:08.818Z,24.05
2024-05-09T00:15:08.862Z,24.05
2024-05-09T00:16:08.911Z,24.06
2024-05-09T00:17:08.940Z,24.05
2024-05-09T00:18:09.225Z,24.06
2024-05-09T00:19:09.137Z,24.05
2024-05-09T00:20:17.474Z,24.05
2024-05-09T00:21:10.154Z,24.05
2024-05-09T00:22:09.160Z,24.05
2024-05-09T00:23:09.609Z,24.05
2024-05-09T00:24:09.218Z,24.05
2024-05-09T00:25:09.286Z,24.05
2024-05-09T00:26:09.373Z,24.05
2024-05-09T00:27:11.256Z,24.05
2024-05-09T00:28:09.446Z,24.05
2024-05-09T00:29:09.586Z,24.04
2024-05-09T00:30:14.361Z,24.04
2024-05-09T00:31:10.562Z,24.04
2024-05-09T00:32:09.703Z,24.04
2024-05-09T00:33:10.893Z,24.05
2024-05-09T00:34:10.004Z,24.05
2024-05-09T00:35:09.799Z,24.04
2024-05-09T00:36:09.838Z,24.05
2024-05-09T00:37:09.860Z,24.04
2024-05-09T00:38:09.925Z,24.04
2024-05-09T00:39:09.936Z,24.04
2024-05-09T00:40:15.276Z,24.04
2024-05-09T00:41:11.317Z,24.04
2024-05-09T00:42:10.072Z,24.04
2024-05-09T00:43:10.420Z,24.04
2024-05-09T00:44:10.198Z,24.04
2024-05-09T00:45:10.235Z,24.04
2024-05-09T00:46:10.266Z,24.05
2024-05-09T00:47:10.475Z,24.04
2024-05-09T00:48:11.611Z,24.03
2024-05-09T00:49:10.758Z,24.04
2024-05-09T00:50:15.972Z,24.03
2024-05-09T00:51:11.840Z,24.04
2024-05-09T00:52:10.791Z,24.03
2024-05-09T00:53:10.959Z,24.03
2024-05-09T00:54:10.920Z,24.03
2024-05-09T00:55:11.103Z,24.03
2024-05-09T00:56:11.127Z,24.03
2024-05-09T00:57:11.075Z,24.03
2024-05-09T00:58:11.097Z,24.03
2024-05-09T00:59:11.328Z,24.03
2024-05-09T01:00:22.102Z,24.03
2024-05-09T01:01:12.452Z,24.03
2024-05-09T01:02:11.568Z,24.03
2024-05-09T01:03:13.532Z,24.02
2024-05-09T01:04:11.658Z,24.03
2024-05-09T01:05:11.624Z,24.03
2024-05-09T01:06:11.581Z,24.03
2024-05-09T01:07:11.626Z,24.03
2024-05-09T01:08:12.011Z,24.02
2024-05-09T01:09:11.673Z,24.02
2024-05-09T01:10:17.342Z,24.02
2024-05-09T01:11:12.818Z,24.03
2024-05-09T01:12:11.938Z,24.02
2024-05-09T01:13:11.844Z,24.02
2024-05-09T01:14:11.951Z,24.02
2024-05-09T01:15:11.948Z,24.02
2024-05-09T01:16:11.995Z,24.02
2024-05-09T01:17:12.108Z,24.02
2024-05-09T01:18:13.363Z,24.02
2024-05-09T01:19:12.127Z,24.02
2024-05-09T01:20:19.814Z,24.02
2024-05-09T01:21:13.289Z,24.01
2024-05-09T01:22:12.221Z,24.02
2024-05-09T01:23:12.791Z,24.02
2024-05-09T01:24:12.263Z,24.03
2024-05-09T01:25:12.353Z,24.02
2024-05-09T01:26:12.427Z,24.02
2024-05-09T01:27:12.424Z,24.02
2024-05-09T01:28:12.490Z,24.03
2024-05-09T01:29:12.565Z,24.02
2024-05-09T01:31:12.709Z,24.02
2024-05-09T01:32:12.872Z,24.02
2024-05-09T01:33:13.514Z,24.01
2024-05-09T01:34:13.021Z,24.02
2024-05-09T01:35:13.173Z,24.02
2024-05-09T01:36:13.201Z,24.02
2024-05-09T01:37:13.326Z,24.02
2024-05-09T01:38:13.999Z,24.01
2024-05-09T01:39:13.468Z,24.01
2024-05-09T01:40:18.454Z,24.01
2024-05-09T01:41:14.638Z,24.01
2024-05-09T01:42:13.661Z,24.01
2024-05-09T01:43:13.697Z,24.01
2024-05-09T01:44:13.884Z,24.01
2024-05-09T01:45:13.803Z,24.01
2024-05-09T01:46:13.840Z,24.01
2024-05-09T01:47:14.040Z,24.01
2024-05-09T01:48:14.051Z,24.01
2024-05-09T01:49:14.212Z,24.01
2024-05-09T01:50:16.618Z,24.00
2024-05-09T01:51:14.266Z,24.01
2024-05-09T01:52:14.160Z,24.01
2024-05-09T01:53:15.083Z,24.01
2024-05-09T01:54:14.240Z,24.01
2024-05-09T01:55:14.299Z,24.01
2024-05-09T01:56:14.401Z,24.01
2024-05-09T01:57:14.357Z,24.01
2024-05-09T01:58:14.410Z,24.01
2024-05-09T01:59:14.498Z,24.00
2024-05-09T02:01:14.664Z,24.00
2024-05-09T02:02:14.748Z,24.01
2024-05-09T02:03:16.964Z,24.00
2024-05-09T02:04:14.864Z,24.01
2024-05-09T02:05:14.760Z,24.00
2024-05-09T02:06:14.725Z,24.01
2024-05-09T02:07:14.743Z,24.01
2024-05-09T02:08:14.918Z,24.00
2024-05-09T02:09:14.839Z,24.01
2024-05-09T02:10:20.341Z,24.01
2024-05-09T02:11:16.045Z,24.00
2024-05-09T02:12:15.109Z,24.00
2024-05-09T02:13:15.023Z,24.00
2024-05-09T02:14:15.069Z,24.00
2024-05-09T02:15:15.070Z,24.00
2024-05-09T02:16:15.111Z,24.00
2024-05-09T02:17:15.304Z,24.00
2024-05-09T02:18:15.375Z,24.00
2024-05-09T02:19:15.337Z,24.00
2024-05-09T02:20:22.451Z,24.00
2024-05-09T02:21:16.534Z,24.00
2024-05-09T02:22:15.505Z,24.00
2024-05-09T02:23:15.636Z,24.00
2024-05-09T02:24:15.563Z,24.00
2024-05-09T02:25:15.622Z,24.00
2024-05-09T02:26:15.679Z,24.00
2024-05-09T02:27:15.688Z,24.00
2024-05-09T02:28:15.724Z,24.00
2024-05-09T02:29:15.870Z,23.99
2024-05-09T02:31:23.639Z,23.90
2024-05-09T02:32:16.092Z,23.96
2024-05-09T02:33:16.208Z,23.97
2024-05-09T02:34:16.216Z,23.97
2024-05-09T02:35:16.254Z,23.98
2024-05-09T02:36:16.176Z,23.99
2024-05-09T02:37:16.239Z,23.99
2024-05-09T02:38:16.322Z,23.99
2024-05-09T02:39:16.340Z,23.99
2024-05-09T02:40:21.681Z,23.99
2024-05-09T02:41:17.430Z,23.99
2024-05-09T02:42:16.453Z,23.99
2024-05-09T02:43:16.474Z,23.99
2024-05-09T02:44:16.549Z,23.98
2024-05-09T02:45:16.531Z,23.99
2024-05-09T02:46:16.573Z,23.99
2024-05-09T02:47:16.766Z,23.99
2024-05-09T02:48:16.812Z,23.99
2024-05-09T02:49:16.916Z,23.99
2024-05-09T02:50:25.975Z,23.99
2024-05-09T02:51:17.905Z,23.98
2024-05-09T02:52:16.957Z,23.99
2024-05-09T02:53:17.020Z,23.99
2024-05-09T02:54:16.993Z,23.99
2024-05-09T02:55:17.060Z,23.99
2024-05-09T02:56:17.107Z,23.99
2024-05-09T02:57:17.131Z,23.99
2024-05-09T02:58:17.194Z,23.98
2024-05-09T02:59:17.201Z,23.99
2024-05-09T03:00:22.801Z,23.98
2024-05-09T03:01:18.394Z,23.98
2024-05-09T03:02:17.478Z,23.98
2024-05-09T03:03:17.595Z,23.99
2024-05-09T03:04:17.560Z,23.99
2024-05-09T03:05:17.538Z,23.98
2024-05-09T03:06:17.533Z,23.98
2024-05-09T03:07:20.149Z,23.98
2024-05-09T03:08:17.700Z,23.98
2024-05-09T03:09:17.676Z,23.99
2024-05-09T03:10:22.307Z,23.99
2024-05-09T03:11:18.841Z,23.98
2024-05-09T03:12:17.841Z,23.98
2024-05-09T03:13:17.839Z,23.97
2024-05-09T03:14:17.887Z,23.98
2024-05-09T03:15:17.916Z,23.98
2024-05-09T03:16:17.949Z,23.98
2024-05-09T03:17:18.061Z,23.98
2024-05-09T03:18:18.090Z,23.98
2024-05-09T03:19:18.435Z,23.98
2024-05-09T03:20:23.711Z,23.98
2024-05-09T03:21:19.355Z,23.97
2024-05-09T03:22:18.398Z,23.97
2024-05-09T03:23:18.468Z,23.98
2024-05-09T03:24:18.481Z,23.97
2024-05-09T03:25:18.547Z,23.97
2024-05-09T03:26:18.647Z,23.98
2024-05-09T03:27:18.628Z,23.98
2024-05-09T03:28:18.678Z,23.97
2024-05-09T03:29:18.774Z,23.97
2024-05-09T03:30:26.153Z,23.98
2024-05-09T03:31:19.867Z,23.97
2024-05-09T03:32:19.023Z,23.97
2024-05-09T03:33:20.428Z,23.97
2024-05-09T03:34:19.049Z,23.97
2024-05-09T03:35:19.042Z,23.97
2024-05-09T03:36:19.076Z,23.97
2024-05-09T03:37:19.220Z,23.97
2024-05-09T03:38:19.409Z,23.97
2024-05-09T03:39:19.576Z,23.97
2024-05-09T03:40:23.620Z,23.97
2024-05-09T03:41:20.792Z,23.97
2024-05-09T03:42:19.727Z,23.97
2024-05-09T03:43:20.074Z,23.97
2024-05-09T03:44:19.864Z,23.97
2024-05-09T03:45:19.892Z,23.97
2024-05-09T03:46:19.935Z,23.96
2024-05-09T03:47:20.224Z,23.97
2024-05-09T03:48:20.292Z,23.97
2024-05-09T03:49:20.232Z,23.96
2024-05-09T03:50:26.160Z,23.97
2024-05-09T03:51:21.184Z,23.96
2024-05-09T03:52:20.210Z,23.96
2024-05-09T03:53:20.266Z,23.96
2024-05-09T03:54:20.312Z,23.96
2024-05-09T03:55:20.339Z,23.96
2024-05-09T03:56:20.459Z,23.95
2024-05-09T03:57:20.458Z,23.96
2024-05-09T03:58:20.478Z,23.96
2024-05-09T03:59:20.603Z,23.95
2024-05-09T04:00:26.676Z,23.96
2024-05-09T04:01:21.756Z,23.95
2024-05-09T04:02:20.799Z,23.96
2024-05-09T04:03:21.023Z,23.95
2024-05-09T04:04:20.841Z,23.96
2024-05-09T04:05:20.932Z,23.95
2024-05-09T04:06:20.952Z,23.96
2024-05-09T04:07:20.990Z,23.95
2024-05-09T04:08:21.108Z,23.96
2024-05-09T04:09:21.064Z,23.95
2024-05-09T04:10:27.912Z,23.95
2024-05-09T04:11:22.309Z,23.95
2024-05-09T04:12:21.450Z,23.95
2024-05-09T04:13:21.334Z,23.95
2024-05-09T04:14:21.527Z,23.95
2024-05-09T04:15:21.509Z,23.95
2024-05-09T04:16:21.455Z,23.96
2024-05-09T04:17:21.540Z,23.95
2024-05-09T04:18:21.618Z,23.95
2024-05-09T04:19:21.888Z,23.95
2024-05-09T04:21:21.747Z,23.95
2024-05-09T04:22:21.848Z,23.94
2024-05-09T04:23:21.946Z,23.94
2024-05-09T04:24:22.034Z,23.95
2024-05-09T04:25:22.140Z,23.94
2024-05-09T04:26:22.302Z,23.95
2024-05-09T04:27:22.442Z,23.94
2024-05-09T04:28:22.568Z,23.94
2024-05-09T04:29:30.043Z,23.92
2024-05-09T04:30:37.018Z,23.93
2024-05-09T04:31:41.879Z,23.90
2024-05-09T04:32:42.007Z,23.92
2024-05-09T04:33:41.932Z,23.93
2024-05-09T04:34:41.999Z,23.93
2024-05-09T04:35:42.276Z,23.94
2024-05-09T04:36:44.528Z,23.95
2024-05-09T04:37:41.929Z,23.94
2024-05-09T04:38:41.876Z,23.94
2024-05-09T04:39:41.864Z,23.94
2024-05-09T04:40:41.907Z,23.96
2024-05-09T04:41:41.884Z,23.96
2024-05-09T04:42:41.859Z,23.95
2024-05-09T04:43:41.868Z,23.96
2024-05-09T04:44:41.868Z,23.95
2024-05-09T04:45:41.868Z,23.96
2024-05-09T04:46:41.856Z,23.96
2024-05-09T04:47:42.078Z,23.97
2024-05-09T04:48:41.986Z,23.97
2024-05-09T04:49:41.923Z,23.97
2024-05-09T04:50:41.943Z,23.97
2024-05-09T04:51:41.916Z,23.97
2024-05-09T04:52:41.884Z,23.98
2024-05-09T04:53:41.897Z,23.98
2024-05-09T04:54:41.859Z,23.99
2024-05-09T04:55:41.901Z,23.99
2024-05-09T04:56:41.972Z,23.99
2024-05-09T04:57:41.913Z,24.00
2024-05-09T04:58:41.904Z,24.00
2024-05-09T04:59:41.892Z,24.00
2024-05-09T05:00:42.060Z,24.01
2024-05-09T05:02:04.684Z,24.00
2024-05-09T05:02:42.009Z,23.98
2024-05-09T05:03:42.109Z,23.99
2024-05-09T05:04:42.006Z,24.01
2024-05-09T05:05:42.089Z,24.01
2024-05-09T05:06:41.916Z,24.01
2024-05-09T05:07:41.894Z,24.01
2024-05-09T05:08:41.902Z,24.02
2024-05-09T05:09:41.905Z,24.02
2024-05-09T05:10:41.951Z,24.02
2024-05-09T05:11:41.993Z,24.03
2024-05-09T05:12:41.914Z,24.03
2024-05-09T05:13:41.919Z,24.04
2024-05-09T05:14:41.920Z,24.04
2024-05-09T05:15:41.910Z,24.04
2024-05-09T05:16:41.940Z,24.04
2024-05-09T05:17:42.113Z,24.04
2024-05-09T05:18:42.239Z,24.04
2024-05-09T05:19:42.288Z,24.05
2024-05-09T05:20:42.426Z,24.04
2024-05-09T05:21:42.473Z,24.04
2024-05-09T05:22:42.590Z,24.04
2024-05-09T05:23:42.714Z,24.05
2024-05-09T05:24:42.783Z,24.05
2024-05-09T05:25:42.961Z,24.05
2024-05-09T05:26:43.089Z,24.05
2024-05-09T05:27:43.179Z,24.05
2024-05-09T05:28:43.309Z,24.05
2024-05-09T05:29:44.056Z,24.05
2024-05-09T05:30:43.501Z,24.05
2024-05-09T05:31:43.670Z,24.05
2024-05-09T05:32:43.912Z,24.06
2024-05-09T05:33:43.908Z,24.06
2024-05-09T05:34:44.048Z,24.06
2024-05-09T05:35:44.184Z,24.06
2024-05-09T05:36:44.193Z,24.06
2024-05-09T05:37:44.403Z,24.06
2024-05-09T05:38:44.583Z,24.07
2024-05-09T05:39:44.560Z,24.07
2024-05-09T05:40:44.707Z,24.07
2024-05-09T05:41:44.776Z,24.07
2024-05-09T05:42:44.909Z,24.07
2024-05-09T05:43:45.066Z,24.07
2024-05-09T05:44:45.110Z,24.07
2024-05-09T05:45:45.353Z,24.08
2024-05-09T05:47:07.926Z,24.08
2024-05-09T05:47:45.592Z,24.04
2024-05-09T05:48:45.519Z,24.06
2024-05-09T05:49:45.419Z,24.06
2024-05-09T05:50:45.501Z,24.07
2024-05-09T05:51:45.359Z,24.07
2024-05-09T05:52:45.381Z,24.07
2024-05-09T05:53:45.368Z,24.07
2024-05-09T05:54:45.334Z,24.08
2024-05-09T05:55:45.454Z,24.08
2024-05-09T05:56:45.375Z,24.08
2024-05-09T05:57:45.336Z,24.08
2024-05-09T05:58:45.407Z,24.09
2024-05-09T05:59:45.374Z,24.08
2024-05-09T06:00:45.422Z,24.08
2024-05-09T06:01:45.390Z,24.08
2024-05-09T06:02:45.535Z,24.08
2024-05-09T06:03:45.377Z,24.08
2024-05-09T06:04:45.403Z,24.08
2024-05-09T06:05:45.422Z,24.09
2024-05-09T06:06:45.463Z,24.09
2024-05-09T06:07:45.624Z,24.08
2024-05-09T06:08:45.826Z,24.09
2024-05-09T06:09:48.200Z,24.09
2024-05-09T06:10:46.016Z,24.09
2024-05-09T06:11:45.858Z,24.09
2024-05-09T06:12:45.793Z,24.10
2024-05-09T06:13:45.860Z,24.10
2024-05-09T06:14:45.780Z,24.11
2024-05-09T06:15:45.784Z,24.10
2024-05-09T06:16:45.884Z,24.10
2024-05-09T06:17:45.861Z,24.10
2024-05-09T06:18:45.920Z,24.10
2024-05-09T06:19:45.948Z,24.11
2024-05-09T06:20:45.788Z,24.11
2024-05-09T06:21:45.755Z,24.11
2024-05-09T06:22:45.807Z,24.11
2024-05-09T06:23:45.786Z,24.12
2024-05-09T06:24:45.747Z,24.11
2024-05-09T06:25:45.825Z,24.11
2024-05-09T06:26:45.742Z,24.11
2024-05-09T06:27:45.737Z,24.11
2024-05-09T06:28:45.795Z,24.12
2024-05-09T06:29:45.708Z,24.13
2024-05-09T06:30:45.718Z,24.13
2024-05-09T06:31:45.748Z,24.14
2024-05-09T06:32:45.865Z,24.15
2024-05-09T06:33:45.770Z,24.15
2024-05-09T06:34:45.842Z,24.14
2024-05-09T06:35:46.069Z,24.14
2024-05-09T06:36:46.005Z,24.15
2024-05-09T06:37:46.154Z,24.15
2024-05-09T06:38:46.344Z,24.15
2024-05-09T06:39:46.339Z,24.15
2024-05-09T06:40:46.560Z,24.15
2024-05-09T06:41:46.603Z,24.14
2024-05-09T06:42:46.701Z,24.15
2024-05-09T06:43:46.859Z,24.15
2024-05-09T06:44:46.926Z,24.14
2024-05-09T06:45:47.742Z,24.15
2024-05-09T06:46:47.207Z,24.15
2024-05-09T06:47:47.391Z,24.15
2024-05-09T06:48:47.592Z,24.15
2024-05-09T06:49:47.616Z,24.15
2024-05-09T06:50:47.705Z,24.16
2024-05-09T06:51:47.703Z,24.16
2024-05-09T06:52:47.873Z,24.16
2024-05-09T06:53:48.000Z,24.16
2024-05-09T06:54:48.027Z,24.16
2024-05-09T06:55:48.303Z,24.17
2024-05-09T06:56:48.291Z,24.17
2024-05-09T06:58:20.991Z,24.17
2024-05-09T06:59:20.985Z,24.18
2024-05-09T07:00:27.724Z,24.18
2024-05-09T07:01:21.950Z,24.17
2024-05-09T07:02:20.961Z,24.19
2024-05-09T07:03:21.086Z,24.19
2024-05-09T07:04:21.024Z,24.20
2024-05-09T07:05:20.993Z,24.20
2024-05-09T07:06:20.922Z,24.21
2024-05-09T07:07:20.891Z,24.20
2024-05-09T07:08:21.000Z,24.21
2024-05-09T07:09:20.876Z,24.21
2024-05-09T07:10:28.659Z,24.21
2024-05-09T07:11:22.124Z,24.21
2024-05-09T07:12:21.080Z,24.21
2024-05-09T07:13:20.976Z,24.22
2024-05-09T07:14:21.007Z,24.22
2024-05-09T07:15:21.019Z,24.23
2024-05-09T07:16:21.021Z,24.23
2024-05-09T07:17:21.137Z,24.24
2024-05-09T07:18:21.190Z,24.24
2024-05-09T07:19:21.141Z,24.24
2024-05-09T07:20:31.654Z,24.25
2024-05-09T07:21:22.149Z,24.25
2024-05-09T07:22:21.141Z,24.26
2024-05-09T07:23:21.142Z,24.26
2024-05-09T07:24:21.152Z,24.27
2024-05-09T07:25:21.111Z,24.27
2024-05-09T07:26:21.247Z,24.28
2024-05-09T07:27:21.128Z,24.29
2024-05-09T07:28:21.120Z,24.29
2024-05-09T07:29:21.174Z,24.30
2024-05-09T07:30:27.555Z,24.31
2024-05-09T07:31:22.331Z,24.32
2024-05-09T07:32:21.341Z,24.33
2024-05-09T07:33:23.007Z,24.34
2024-05-09T07:34:21.426Z,24.33
2024-05-09T07:35:21.274Z,24.32
2024-05-09T07:36:21.206Z,24.33
2024-05-09T07:37:21.225Z,24.34
2024-05-09T07:38:21.425Z,24.36
2024-05-09T07:39:21.256Z,24.37
2024-05-09T07:40:31.813Z,24.37
2024-05-09T07:41:22.254Z,24.37
2024-05-09T07:42:21.200Z,24.38
2024-05-09T07:43:21.221Z,24.38
2024-05-09T07:44:21.224Z,24.38
2024-05-09T07:45:40.162Z,24.37
2024-05-09T07:47:14.660Z,24.39
2024-05-09T07:48:32.098Z,24.38
2024-05-09T07:53:30.463Z,24.40
2024-05-09T07:53:39.235Z,24.39
2024-05-09T07:54:22.290Z,24.39
2024-05-09T07:55:21.290Z,24.39
2024-05-09T07:56:22.741Z,24.39
2024-05-09T07:57:21.261Z,24.39
2024-05-09T07:58:21.176Z,24.39
2024-05-09T07:59:21.143Z,24.40
2024-05-09T08:00:29.499Z,24.41
2024-05-09T08:01:22.350Z,24.41
2024-05-09T08:02:21.417Z,24.41
2024-05-09T08:03:21.243Z,24.43
2024-05-09T08:04:22.392Z,24.43
2024-05-09T08:05:21.209Z,24.43
2024-05-09T08:06:21.130Z,24.43
2024-05-09T08:07:21.133Z,24.43
2024-05-09T08:08:21.124Z,24.43
2024-05-09T08:09:21.744Z,24.43
2024-05-09T08:10:24.680Z,24.44
2024-05-09T08:11:22.310Z,24.46
2024-05-09T08:12:21.272Z,24.46
2024-05-09T08:13:21.372Z,24.46
2024-05-09T08:14:21.220Z,24.46
2024-05-09T08:15:21.232Z,24.46
2024-05-09T08:16:21.364Z,24.46
2024-05-09T08:17:21.225Z,24.46
2024-05-09T08:18:21.290Z,24.46
2024-05-09T08:19:21.234Z,24.46
2024-05-09T08:20:30.146Z,24.45
2024-05-09T08:21:22.150Z,24.44
2024-05-09T08:22:21.220Z,24.45
2024-05-09T08:23:21.142Z,24.47
2024-05-09T08:24:21.150Z,24.48
2024-05-09T08:25:21.171Z,24.48
2024-05-09T08:26:21.208Z,24.48
2024-05-09T08:27:21.218Z,24.48
2024-05-09T08:28:21.274Z,24.49
2024-05-09T08:29:21.183Z,24.49
2024-05-09T08:30:29.064Z,24.49
2024-05-09T08:31:22.229Z,24.51
2024-05-09T08:32:21.273Z,24.53
2024-05-09T08:33:21.303Z,24.56
2024-05-09T08:34:21.231Z,24.57
2024-05-09T08:35:21.129Z,24.58
2024-05-09T08:36:21.139Z,24.56
2024-05-09T08:37:23.495Z,24.56
2024-05-09T08:38:21.142Z,24.55
2024-05-09T08:39:21.095Z,24.54
2024-05-09T08:40:30.531Z,24.54
2024-05-09T08:41:22.083Z,24.54
2024-05-09T08:42:21.090Z,24.54
2024-05-09T08:43:21.259Z,24.53
2024-05-09T08:44:21.071Z,24.54
2024-05-09T08:45:21.077Z,24.54
2024-05-09T08:46:21.371Z,24.55
2024-05-09T08:47:21.089Z,24.56
2024-05-09T08:48:21.201Z,24.58
2024-05-09T08:49:21.163Z,24.58
2024-05-09T08:50:31.431Z,24.59
2024-05-09T08:51:22.008Z,24.60
2024-05-09T08:52:20.991Z,24.60
2024-05-09T08:53:20.971Z,24.61
2024-05-09T08:54:20.957Z,24.61
2024-05-09T08:55:21.009Z,24.58
2024-05-09T08:56:21.042Z,24.56
2024-05-09T08:57:20.946Z,24.55
2024-05-09T08:58:20.983Z,24.55
2024-05-09T08:59:20.981Z,24.57
2024-05-09T09:00:29.611Z,24.59
2024-05-09T09:01:22.208Z,24.59
2024-05-09T09:02:21.311Z,24.60
2024-05-09T09:03:21.064Z,24.61
2024-05-09T09:04:21.135Z,24.61
2024-05-09T09:05:21.091Z,24.61
2024-05-09T09:06:21.014Z,24.62
2024-05-09T09:07:21.130Z,24.62
2024-05-09T09:08:20.974Z,24.62
2024-05-09T09:09:20.981Z,24.62
2024-05-09T09:10:29.185Z,24.62
2024-05-09T09:11:22.033Z,24.61
2024-05-09T09:12:20.967Z,24.61
2024-05-09T09:13:21.013Z,24.61
2024-05-09T09:14:20.985Z,24.61
2024-05-09T09:15:20.960Z,24.61
2024-05-09T09:16:20.987Z,24.61
2024-05-09T09:17:20.994Z,24.62
2024-05-09T09:18:20.986Z,24.62
2024-05-09T09:19:21.116Z,24.62
2024-05-09T09:20:28.721Z,24.61
2024-05-09T09:21:21.917Z,24.62
2024-05-09T09:22:20.945Z,24.62
2024-05-09T09:23:20.938Z,24.63
2024-05-09T09:24:20.914Z,24.63
2024-05-09T09:25:20.881Z,24.62
2024-05-09T09:26:20.898Z,24.62
2024-05-09T09:27:20.886Z,24.63
2024-05-09T09:28:20.930Z,24.62
2024-05-09T09:29:20.879Z,24.62
2024-05-09T09:30:31.862Z,24.62
2024-05-09T09:31:21.958Z,24.62
2024-05-09T09:32:20.924Z,24.64
2024-05-09T09:33:20.963Z,24.64
2024-05-09T09:34:20.912Z,24.64
2024-05-09T09:35:20.938Z,24.64
2024-05-09T09:36:20.864Z,24.65
2024-05-09T09:37:20.949Z,24.65
2024-05-09T09:38:20.835Z,24.66
2024-05-09T09:39:20.841Z,24.67
2024-05-09T09:40:22.243Z,24.67
2024-05-09T09:41:20.823Z,24.67
2024-05-09T09:42:20.842Z,24.67
2024-05-09T09:43:21.182Z,24.67
2024-05-09T09:44:20.822Z,24.68
2024-05-09T09:45:20.819Z,24.68
2024-05-09T09:46:20.884Z,24.68
2024-05-09T09:48:27.631Z,24.69
2024-05-09T09:49:27.483Z,24.69
2024-05-09T09:50:33.845Z,24.70
2024-05-09T09:51:28.450Z,24.70
2024-05-09T09:52:27.407Z,24.71
2024-05-09T09:53:27.388Z,24.73
2024-05-09T09:54:27.421Z,24.73
2024-05-09T09:55:27.433Z,24.74
2024-05-09T09:56:27.357Z,24.73
2024-05-09T09:57:27.440Z,24.74
2024-05-09T09:58:27.634Z,24.74
2024-05-09T09:59:27.302Z,24.75
2024-05-09T10:00:32.517Z,24.75
2024-05-09T10:01:28.447Z,24.77
2024-05-09T10:02:27.396Z,24.77
2024-05-09T10:03:27.680Z,24.78
2024-05-09T10:04:27.308Z,24.78
2024-05-09T10:05:27.698Z,24.79
2024-05-09T10:06:27.320Z,24.79
2024-05-09T10:07:27.230Z,24.79
2024-05-09T10:08:27.240Z,24.80
2024-05-09T10:09:27.245Z,24.81
2024-05-09T10:10:32.045Z,24.82
2024-05-09T10:11:28.183Z,24.82
2024-05-09T10:12:27.168Z,24.83
2024-05-09T10:13:27.215Z,24.84
2024-05-09T10:14:27.164Z,24.84
2024-05-09T10:15:27.168Z,24.86
2024-05-09T10:16:27.179Z,24.86
2024-05-09T10:17:27.267Z,24.88
2024-05-09T10:18:29.433Z,24.88
2024-05-09T10:19:27.199Z,24.89
2024-05-09T10:20:30.914Z,24.90
2024-05-09T10:21:28.075Z,24.90
2024-05-09T10:22:27.111Z,24.90
2024-05-09T10:23:27.105Z,24.92
2024-05-09T10:24:27.051Z,24.91
2024-05-09T10:25:27.106Z,24.93
2024-05-09T10:26:27.030Z,24.94
2024-05-09T10:27:27.027Z,24.94
2024-05-09T10:28:27.029Z,24.95
2024-05-09T10:29:26.994Z,24.95
2024-05-09T10:30:33.742Z,24.97
2024-05-09T10:31:28.065Z,24.96
2024-05-09T10:32:27.030Z,24.96
2024-05-09T10:33:27.119Z,24.98
2024-05-09T10:34:27.045Z,24.98
2024-05-09T10:35:26.935Z,24.98
2024-05-09T10:36:26.944Z,24.97
2024-05-09T10:37:27.023Z,24.97
2024-05-09T10:38:26.919Z,24.98
2024-05-09T10:39:26.962Z,24.99
2024-05-09T10:40:31.239Z,24.98
2024-05-09T10:41:27.885Z,24.98
2024-05-09T10:42:26.896Z,24.99
2024-05-09T10:43:26.873Z,24.99
2024-05-09T10:44:26.830Z,24.99
2024-05-09T10:45:26.822Z,25.01
2024-05-09T10:46:27.634Z,25.01
2024-05-09T10:47:26.857Z,25.02
2024-05-09T10:48:26.932Z,25.03
2024-05-09T10:49:26.837Z,25.04
2024-05-09T10:50:31.806Z,25.04
2024-05-09T10:51:27.750Z,25.05
2024-05-09T10:52:26.795Z,25.05
2024-05-09T10:53:26.690Z,25.07
2024-05-09T10:54:26.648Z,25.08
2024-05-09T10:55:26.624Z,25.08
2024-05-09T10:56:26.585Z,25.10
2024-05-09T10:57:26.599Z,25.10
2024-05-09T10:58:26.602Z,25.10
2024-05-09T10:59:26.580Z,25.10
2024-05-09T11:00:33.142Z,25.12
2024-05-09T11:01:27.681Z,25.10
2024-05-09T11:02:26.755Z,25.12
2024-05-09T11:03:26.703Z,25.12
2024-05-09T11:04:26.547Z,25.12
2024-05-09T11:05:26.620Z,25.12
2024-05-09T11:06:26.521Z,25.13
2024-05-09T11:07:26.613Z,25.13
2024-05-09T11:08:26.482Z,25.13
2024-05-09T11:09:26.473Z,25.13
2024-05-09T11:10:33.394Z,25.13
2024-05-09T11:11:27.473Z,25.13
2024-05-09T11:12:26.447Z,25.14
2024-05-09T11:13:26.450Z,25.15
2024-05-09T11:14:26.410Z,25.15
2024-05-09T11:15:26.422Z,25.15
2024-05-09T11:16:26.529Z,25.15
2024-05-09T11:17:26.547Z,25.16
2024-05-09T11:18:27.906Z,25.16
2024-05-09T11:19:26.410Z,25.16
2024-05-09T11:20:29.782Z,25.16
2024-05-09T11:21:26.321Z,25.16
2024-05-09T11:22:26.319Z,25.16
2024-05-09T11:23:26.308Z,25.17
2024-05-09T11:24:26.287Z,25.16
2024-05-09T11:25:26.331Z,25.17
2024-05-09T11:26:26.275Z,25.17
2024-05-09T11:27:26.219Z,25.18
2024-05-09T11:28:26.241Z,25.18
2024-05-09T11:29:26.213Z,25.18
2024-05-09T11:30:31.604Z,25.17
2024-05-09T11:31:27.546Z,25.17
2024-05-09T11:32:26.310Z,25.18
2024-05-09T11:33:26.180Z,25.18
2024-05-09T11:34:26.097Z,25.18
2024-05-09T11:35:26.082Z,25.17
2024-05-09T11:36:26.067Z,25.18
2024-05-09T11:37:26.122Z,25.18
2024-05-09T11:38:26.025Z,25.18
2024-05-09T11:39:26.008Z,25.18
2024-05-09T11:40:32.280Z,25.18
2024-05-09T11:41:26.968Z,25.18
2024-05-09T11:42:25.952Z,25.18
2024-05-09T11:43:25.981Z,25.17
2024-05-09T11:44:25.915Z,25.17
2024-05-09T11:45:25.926Z,25.17
2024-05-09T11:46:25.964Z,25.17
2024-05-09T11:47:25.984Z,25.18
2024-05-09T11:48:26.473Z,25.18
2024-05-09T11:49:27.101Z,25.18
2024-05-09T11:50:30.103Z,25.18
2024-05-09T11:51:26.802Z,25.17
2024-05-09T11:52:25.801Z,25.17
2024-05-09T11:53:25.762Z,25.17
2024-05-09T11:54:25.728Z,25.17
2024-05-09T11:55:27.966Z,25.16
2024-05-09T11:56:25.714Z,25.16
2024-05-09T11:57:25.704Z,25.16
2024-05-09T11:58:25.699Z,25.15
2024-05-09T11:59:25.638Z,25.14
2024-05-09T12:00:33.860Z,25.14
2024-05-09T12:01:27.943Z,25.13
2024-05-09T12:02:25.838Z,25.13
2024-05-09T12:03:25.818Z,25.12
2024-05-09T12:04:25.939Z,25.14
2024-05-09T12:05:26.049Z,25.13
2024-05-09T12:06:25.825Z,25.14
2024-05-09T12:07:25.795Z,25.13
2024-05-09T12:08:25.759Z,25.14
2024-05-09T12:09:25.782Z,25.14
2024-05-09T12:10:32.308Z,25.14
2024-05-09T12:11:26.825Z,25.14
2024-05-09T12:12:25.757Z,25.13
2024-05-09T12:13:25.926Z,25.13
2024-05-09T12:14:25.747Z,25.14
2024-05-09T12:15:25.713Z,25.13
2024-05-09T12:16:25.895Z,25.13
2024-05-09T12:17:25.751Z,25.11
2024-05-09T12:18:25.675Z,25.11
2024-05-09T12:19:25.691Z,25.10
2024-05-09T12:20:33.078Z,25.11
2024-05-09T12:21:26.616Z,25.11
2024-05-09T12:22:25.616Z,25.11
2024-05-09T12:23:25.586Z,25.11
2024-05-09T12:24:25.561Z,25.10
2024-05-09T12:25:25.592Z,25.10
2024-05-09T12:26:25.535Z,25.10
2024-05-09T12:27:25.523Z,25.09
2024-05-09T12:28:25.588Z,25.10
2024-05-09T12:29:25.500Z,25.09
2024-05-09T12:30:35.019Z,25.09
2024-05-09T12:31:26.647Z,25.07
2024-05-09T12:32:25.654Z,25.08
2024-05-09T12:33:25.574Z,25.07
2024-05-09T12:34:25.529Z,25.08
2024-05-09T12:35:25.439Z,25.07
2024-05-09T12:36:25.415Z,25.07
2024-05-09T12:37:25.426Z,25.07
2024-05-09T12:38:25.369Z,25.06
2024-05-09T12:39:25.367Z,25.07
2024-05-09T12:40:34.327Z,25.06
2024-05-09T12:41:26.346Z,25.06
2024-05-09T12:42:27.847Z,25.07
2024-05-09T12:43:25.438Z,25.07
2024-05-09T12:44:25.259Z,25.06
2024-05-09T12:45:25.220Z,25.06
2024-05-09T12:46:25.493Z,25.05
2024-05-09T12:47:25.315Z,25.05
2024-05-09T12:48:25.318Z,25.05
2024-05-09T12:49:25.446Z,25.04
2024-05-09T12:50:31.682Z,25.04
2024-05-09T12:51:26.127Z,25.03
2024-05-09T12:52:25.151Z,25.02
2024-05-09T12:53:25.110Z,25.01
2024-05-09T12:54:25.108Z,25.01
2024-05-09T12:55:25.168Z,25.00
2024-05-09T12:56:25.062Z,24.99
2024-05-09T12:57:25.073Z,24.97
2024-05-09T12:58:25.153Z,24.98
2024-05-09T12:59:25.089Z,24.97
2024-05-09T13:00:31.458Z,24.97
2024-05-09T13:01:26.124Z,24.97
2024-05-09T13:02:25.259Z,24.97